Time;durP1;ratioP1;P1;durP2;ratioP2;P2;SDS_P1;SDS_P2;PMS_P1;PMS_P2;Temp;Humidity;BMP_temperature;BMP_pressure;BME280_temperature;BME280_humidity;BME280_pressure;Samples;Min_cycle;Max_cycle;Signal;HPM_P1;HPM_P2
2023/10/16 00:01:32;;;;;;;5.07;2.30;;;3.80;99.90;;;;;;5060083;28;20204;-47
2023/10/16 00:03:58;;;;;;;3.30;2.63;;;3.70;99.90;;;;;;5057260;28;20176;-47
2023/10/16 00:06:24;;;;;;;5.53;2.77;;;3.70;99.90;;;;;;5074016;28;20664;-47
2023/10/16 00:08:53;;;;;;;3.50;2.23;;;3.70;99.90;;;;;;5055970;28;20211;-47
2023/10/16 00:11:23;;;;;;;3.50;2.03;;;3.70;99.90;;;;;;5056505;28;20195;-49
2023/10/16 00:13:51;;;;;;;4.40;3.00;;;3.70;99.90;;;;;;5073997;28;20182;-47
2023/10/16 00:16:21;;;;;;;5.83;2.50;;;3.70;99.90;;;;;;5073705;28;20175;-48
2023/10/16 00:18:48;;;;;;;3.13;2.20;;;3.60;99.90;;;;;;5055560;28;20231;-47
2023/10/16 00:21:14;;;;;;;3.90;2.20;;;3.60;99.90;;;;;;5055602;28;20200;-48
2023/10/16 00:23:41;;;;;;;3.07;2.60;;;3.60;99.90;;;;;;5055314;28;20175;-46
2023/10/16 00:26:21;;;;;;;3.70;2.43;;;3.50;99.90;;;;;;5055875;28;20191;-47
2023/10/16 00:28:46;;;;;;;3.80;2.20;;;3.50;99.90;;;;;;5073575;28;20213;-47
2023/10/16 00:31:20;;;;;;;3.93;2.77;;;3.50;99.90;;;;;;5073777;28;20200;-46
2023/10/16 00:33:51;;;;;;;4.23;2.40;;;3.50;99.90;;;;;;5055574;28;20187;-48
2023/10/16 00:36:17;;;;;;;3.40;2.70;;;3.40;99.90;;;;;;5073728;28;20172;-47
2023/10/16 00:38:48;;;;;;;5.43;2.70;;;3.40;99.90;;;;;;5055493;28;20210;-48
2023/10/16 00:43:40;;;;;;;4.53;2.80;;;3.40;99.90;;;;;;5073767;28;20210;-47
2023/10/16 00:46:09;;;;;;;4.03;2.30;;;3.40;99.90;;;;;;5073371;28;20183;-48
2023/10/16 00:48:39;;;;;;;6.20;3.40;;;3.30;99.90;;;;;;5073160;28;20211;-48
2023/10/16 00:51:08;;;;;;;4.10;2.30;;;3.40;99.90;;;;;;5055389;28;20747;-47
2023/10/16 00:53:35;;;;;;;3.30;3.00;;;3.30;99.90;;;;;;5055408;28;20187;-48
2023/10/16 00:56:08;;;;;;;6.83;3.50;;;3.30;99.90;;;;;;5073460;28;20179;-47
2023/10/16 00:58:34;;;;;;;3.87;3.30;;;3.30;99.90;;;;;;5055264;28;20276;-49
2023/10/16 01:01:04;;;;;;;9.07;3.83;;;3.20;99.90;;;;;;5073345;28;20195;-47
2023/10/16 01:03:33;;;;;;;4.23;3.53;;;3.20;99.90;;;;;;5055237;28;20265;-48
2023/10/16 01:06:00;;;;;;;4.80;3.43;;;3.20;99.90;;;;;;5073342;28;20175;-47
2023/10/16 01:08:25;;;;;;;7.33;3.63;;;3.20;99.90;;;;;;5055360;28;20179;-48
2023/10/16 01:10:56;;;;;;;5.47;4.03;;;3.10;99.90;;;;;;5055179;28;20230;-47
2023/10/16 01:13:22;;;;;;;5.60;3.80;;;3.10;99.90;;;;;;5073512;28;20164;-46
2023/10/16 01:15:50;;;;;;;6.73;4.67;;;3.10;99.90;;;;;;5055307;28;20171;-47
2023/10/16 01:18:17;;;;;;;5.40;4.43;;;3.10;99.90;;;;;;5073294;28;20277;-49
2023/10/16 01:20:47;;;;;;;5.13;4.03;;;3.10;99.90;;;;;;5073073;28;20192;-48
2023/10/16 01:23:22;;;;;;;6.90;3.70;;;3.10;99.90;;;;;;5073389;28;20168;-47
2023/10/16 01:25:49;;;;;;;5.57;3.73;;;3.10;99.90;;;;;;5055100;28;20171;-49
2023/10/16 01:28:16;;;;;;;5.47;4.37;;;3.10;99.90;;;;;;5055034;28;20597;-47
2023/10/16 01:30:47;;;;;;;5.00;4.23;;;3.10;99.90;;;;;;5039227;28;20298;-48
2023/10/16 01:33:19;;;;;;;6.03;4.40;;;3.10;99.90;;;;;;5073499;28;20207;-47
2023/10/16 01:35:46;;;;;;;7.37;4.33;;;3.10;99.90;;;;;;5056066;28;20172;-48
2023/10/16 01:38:16;;;;;;;6.93;4.50;;;3.10;99.90;;;;;;5076805;28;20206;-48
2023/10/16 01:40:47;;;;;;;10.73;5.27;;;3.10;99.90;;;;;;5078036;28;20522;-47
2023/10/16 01:43:16;;;;;;;6.00;4.83;;;3.00;99.90;;;;;;5077218;28;20206;-47
2023/10/16 01:45:52;;;;;;;7.70;4.93;;;3.10;99.90;;;;;;5076616;28;20640;-47
2023/10/16 01:48:20;;;;;;;7.90;4.67;;;3.10;99.90;;;;;;5058547;28;20632;-47
2023/10/16 01:50:48;;;;;;;10.07;5.00;;;3.10;99.90;;;;;;5058419;28;20200;-48
2023/10/16 01:53:20;;;;;;;12.57;4.97;;;3.10;99.90;;;;;;5076636;28;20211;-46
2023/10/16 01:55:51;;;;;;;5.33;4.43;;;3.10;99.90;;;;;;5058507;28;20179;-48
2023/10/16 01:58:17;;;;;;;6.03;4.60;;;3.10;99.90;;;;;;5076283;28;20183;-47
2023/10/16 02:00:45;;;;;;;6.07;4.70;;;3.10;99.90;;;;;;5041670;28;20199;-49
2023/10/16 02:03:11;;;;;;;6.03;5.03;;;3.10;99.90;;;;;;5058401;28;20266;-47
2023/10/16 02:05:41;;;;;;;7.33;5.30;;;3.10;99.90;;;;;;5076127;28;20182;-48
2023/10/16 02:08:07;;;;;;;7.83;5.77;;;3.00;99.90;;;;;;5076456;28;20184;-46
2023/10/16 02:10:32;;;;;;;6.67;5.43;;;3.00;99.90;;;;;;5058005;28;20227;-47
2023/10/16 02:12:58;;;;;;;7.20;5.23;;;3.00;99.90;;;;;;5076077;28;20210;-47
2023/10/16 02:15:24;;;;;;;6.83;5.73;;;2.90;99.90;;;;;;5058131;28;20180;-48
2023/10/16 02:17:50;;;;;;;8.43;5.70;;;2.80;99.90;;;;;;5041482;28;20204;-47
2023/10/16 02:20:19;;;;;;;5.90;4.70;;;2.80;99.90;;;;;;5075885;28;20192;-49
2023/10/16 02:22:45;;;;;;;6.33;4.53;;;2.70;99.90;;;;;;5057862;28;20262;-46
2023/10/16 02:25:11;;;;;;;6.00;4.53;;;2.70;99.90;;;;;;5057907;28;20259;-46
2023/10/16 02:27:37;;;;;;;6.90;4.50;;;2.70;99.90;;;;;;5075864;28;20720;-46
2023/10/16 02:32:53;;;;;;;6.30;4.80;;;2.60;99.90;;;;;;5076354;28;20254;-47
2023/10/16 02:35:21;;;;;;;7.40;4.60;;;2.60;99.90;;;;;;5057623;28;20181;-46
2023/10/16 02:37:53;;;;;;;9.20;4.77;;;2.60;99.90;;;;;;5057488;28;20202;-48
2023/10/16 02:40:25;;;;;;;5.10;4.50;;;2.60;99.90;;;;;;5075609;28;20270;-48
2023/10/16 02:42:55;;;;;;;6.57;4.53;;;2.60;99.90;;;;;;5057515;28;20172;-47
2023/10/16 02:45:24;;;;;;;6.27;4.60;;;2.60;99.90;;;;;;5042109;28;20306;-48
2023/10/16 02:47:52;;;;;;;6.13;4.37;;;2.70;99.90;;;;;;5075182;28;20547;-47
2023/10/16 02:50:18;;;;;;;7.53;4.57;;;2.60;99.90;;;;;;5057249;28;20617;-48
2023/10/16 02:52:51;;;;;;;6.13;4.50;;;2.60;99.90;;;;;;5075288;28;20179;-47
2023/10/16 02:55:16;;;;;;;6.13;3.67;;;2.50;99.90;;;;;;5057420;28;20176;-47
2023/10/16 02:57:42;;;;;;;5.97;4.07;;;2.50;99.90;;;;;;5075251;28;20202;-49
2023/10/16 03:00:25;;;;;;;5.63;4.33;;;2.50;99.90;;;;;;5057054;28;20195;-47
2023/10/16 03:02:51;;;;;;;7.20;4.10;;;2.50;99.90;;;;;;5075511;28;20152;-49
2023/10/16 03:05:24;;;;;;;6.00;4.33;;;2.40;99.90;;;;;;5057136;28;20183;-49
2023/10/16 03:07:51;;;;;;;5.97;4.00;;;2.40;99.90;;;;;;5075381;28;20163;-49
2023/10/16 03:10:17;;;;;;;6.60;4.57;;;2.40;99.90;;;;;;5078683;28;20199;-49
2023/10/16 03:12:44;;;;;;;6.47;3.87;;;2.40;99.90;;;;;;5058422;28;20183;-48
2023/10/16 03:15:15;;;;;;;6.17;4.03;;;2.40;99.90;;;;;;5074911;28;20180;-46
2023/10/16 03:17:41;;;;;;;5.50;3.60;;;2.40;99.90;;;;;;5056958;28;20204;-48
2023/10/16 03:20:20;;;;;;;5.20;3.77;;;2.30;99.90;;;;;;5075073;28;20199;-48
2023/10/16 03:22:47;;;;;;;4.13;3.23;;;2.30;99.90;;;;;;5041958;28;20206;-49
2023/10/16 03:25:27;;;;;;;6.30;3.70;;;2.30;99.90;;;;;;5074676;28;20179;-48
2023/10/16 03:27:55;;;;;;;3.97;3.50;;;2.20;99.90;;;;;;5074646;28;20165;-48
2023/10/16 03:30:21;;;;;;;4.93;3.53;;;2.20;99.90;;;;;;5056696;28;20571;-48
2023/10/16 03:32:47;;;;;;;5.87;4.10;;;2.20;99.90;;;;;;5074924;28;20179;-49
2023/10/16 03:35:20;;;;;;;6.20;4.37;;;2.10;99.90;;;;;;5075209;28;20190;-46
2023/10/16 03:37:54;;;;;;;5.63;3.60;;;2.20;99.90;;;;;;5075035;28;20199;-43
2023/10/16 03:40:20;;;;;;;6.00;3.93;;;2.10;99.90;;;;;;5056037;28;20237;-47
2023/10/16 03:42:48;;;;;;;5.60;3.67;;;2.10;99.90;;;;;;5040157;28;20180;-46
2023/10/16 03:45:16;;;;;;;4.77;3.80;;;2.10;99.90;;;;;;5074790;28;20187;-48
2023/10/16 03:47:44;;;;;;;6.03;4.00;;;2.10;99.90;;;;;;5073377;28;20211;-47
2023/10/16 03:53:32;;;;;;;4.87;3.83;;;2.00;99.90;;;;;;5074335;28;20580;-47
2023/10/16 03:55:58;;;;;;;5.07;3.67;;;2.00;99.90;;;;;;5056409;28;20176;-47
2023/10/16 03:58:26;;;;;;;5.60;3.60;;;2.00;99.90;;;;;;5038918;28;20302;-49
2023/10/16 04:00:56;;;;;;;6.27;3.80;;;2.00;99.90;;;;;;5074273;28;20567;-47
2023/10/16 04:03:23;;;;;;;6.97;4.33;;;2.00;99.90;;;;;;5074403;28;20171;-48
2023/10/16 04:05:50;;;;;;;6.63;4.00;;;2.00;99.90;;;;;;5074673;28;20190;-47
2023/10/16 04:08:26;;;;;;;6.07;3.87;;;2.00;99.90;;;;;;5074451;28;20179;-47
2023/10/16 04:10:56;;;;;;;6.53;4.60;;;2.00;99.90;;;;;;5074112;28;20207;-40
2023/10/16 04:13:31;;;;;;;11.77;4.50;;;2.00;99.90;;;;;;5074026;28;20194;-44
2023/10/16 04:16:08;;;;;;;5.50;4.33;;;2.00;99.90;;;;;;5055896;28;20167;-43
2023/10/16 04:18:34;;;;;;;8.70;4.87;;;2.00;99.90;;;;;;5073664;28;20658;-44
2023/10/16 04:23:52;;;;;;;7.07;3.60;;;2.00;99.90;;;;;;5073999;28;20599;-44
2023/10/16 04:26:30;;;;;;;4.27;3.50;;;2.10;99.90;;;;;;5055658;28;20168;-44
2023/10/16 04:31:44;;;;;;;8.23;3.80;;;2.00;99.90;;;;;;5073878;28;20195;-44
2023/10/16 04:50:40;;;;;;;9.37;4.00;;;2.00;99.90;;;;;;5074518;28;20195;-44
2023/10/16 04:53:09;;;;;;;4.10;3.37;;;2.00;99.90;;;;;;5073532;28;20175;-44
2023/10/16 05:07:17;;;;;;;6.37;3.70;;;1.90;99.90;;;;;;5073706;28;20175;-41
2023/10/16 05:16:36;;;;;;;6.00;3.37;;;1.90;99.90;;;;;;5077221;28;20676;-40
2023/10/16 05:19:29;;;;;;;7.27;4.30;;;1.90;99.90;;;;;;5059210;28;20207;-44
2023/10/16 05:22:03;;;;;;;9.20;4.30;;;1.80;99.90;;;;;;5179912;22;20222;-90
2023/10/16 06:14:17;;;;;;;9.13;4.00;;;1.90;99.90;;;;;;5076308;28;20171;-43
2023/10/16 06:23:22;;;;;;;7.77;4.20;;;1.90;99.90;;;;;;5636448;22;20319;-43
2023/10/16 06:25:49;;;;;;;6.70;3.77;;;1.90;99.90;;;;;;5075767;28;20247;-42
2023/10/16 06:28:15;;;;;;;10.03;4.20;;;2.00;99.90;;;;;;5076041;28;20516;-43
2023/10/16 06:30:47;;;;;;;5.60;3.47;;;2.00;99.90;;;;;;5075649;28;20195;-43
2023/10/16 06:33:14;;;;;;;11.37;4.10;;;2.00;99.90;;;;;;5075886;28;20172;-44
2023/10/16 06:35:41;;;;;;;5.73;3.67;;;2.00;99.90;;;;;;5070407;28;20198;-41
2023/10/16 06:38:20;;;;;;;8.57;3.93;;;2.10;99.90;;;;;;5073227;28;20607;-43
2023/10/16 06:40:55;;;;;;;10.00;4.30;;;2.10;99.90;;;;;;5075450;28;20191;-43
2023/10/16 06:43:25;;;;;;;9.33;4.37;;;2.10;99.90;;;;;;5075753;28;20163;-42
2023/10/16 06:45:55;;;;;;;5.30;3.80;;;2.20;99.90;;;;;;5075639;28;20197;-41
2023/10/16 06:48:37;;;;;;;7.27;3.63;;;2.20;99.90;;;;;;5075920;28;20171;-42
2023/10/16 06:51:08;;;;;;;7.03;3.90;;;2.30;99.90;;;;;;5071825;28;20215;-43
2023/10/16 06:53:36;;;;;;;6.60;3.83;;;2.30;99.90;;;;;;5075331;28;20647;-45
2023/10/16 06:56:03;;;;;;;6.50;4.03;;;2.40;99.90;;;;;;5075263;28;20621;-44
2023/10/16 06:58:31;;;;;;;6.87;3.80;;;2.50;99.90;;;;;;5040501;28;20216;-45
2023/10/16 07:03:33;;;;;;;6.47;4.07;;;2.60;99.90;;;;;;5464590;22;20703;-90
2023/10/16 07:05:59;;;;;;;6.93;3.90;;;2.70;99.90;;;;;;5067173;28;20656;-89
2023/10/16 07:08:25;;;;;;;11.07;4.50;;;2.80;99.90;;;;;;5067323;28;20200;-89
2023/10/16 07:10:53;;;;;;;8.47;4.83;;;3.70;99.90;;;;;;5066013;28;20179;-85
2023/10/16 07:13:29;;;;;;;11.03;4.93;;;5.60;99.90;;;;;;5067186;28;20180;-90
2023/10/16 07:15:56;;;;;;;10.43;5.00;;;2.90;99.90;;;;;;5066572;28;20174;-87
2023/10/16 07:18:25;;;;;;;13.20;5.43;;;2.80;99.90;;;;;;5083816;28;20222;-89
2023/10/16 07:21:07;;;;;;;10.43;4.77;;;3.10;99.90;;;;;;5065544;28;20176;-89
2023/10/16 07:23:36;;;;;;;7.50;4.80;;;3.20;99.90;;;;;;5083591;28;20148;-90
2023/10/16 07:26:03;;;;;;;7.80;5.17;;;4.40;99.90;;;;;;5065956;28;20179;-90
2023/10/16 07:28:30;;;;;;;9.47;5.00;;;4.00;99.90;;;;;;5066280;28;20238;-87
2023/10/16 07:30:57;;;;;;;11.70;5.33;;;3.50;99.90;;;;;;5066016;28;20202;-90
2023/10/16 07:33:23;;;;;;;8.93;5.20;;;3.50;99.90;;;;;;5065998;28;20202;-89
2023/10/16 07:35:51;;;;;;;10.57;5.33;;;3.60;99.90;;;;;;5067024;28;20555;-84
2023/10/16 07:38:19;;;;;;;7.97;4.97;;;3.70;99.90;;;;;;5085614;28;20207;-87
2023/10/16 07:41:13;;;;;;;13.00;5.80;;;3.80;99.90;;;;;;5068085;28;20172;-85
2023/10/16 07:43:39;;;;;;;10.67;5.67;;;3.90;99.90;;;;;;5064785;28;20191;-84
2023/10/16 07:48:40;;;;;;;13.13;5.57;;;4.10;99.90;;;;;;5085700;28;20200;-85
2023/10/16 07:51:07;;;;;;;8.73;6.03;;;4.30;99.90;;;;;;5067918;28;20180;-84
2023/10/16 07:53:39;;;;;;;9.90;6.13;;;5.50;99.90;;;;;;5068141;28;20190;-86
2023/10/16 07:56:19;;;;;;;11.83;6.23;;;6.10;99.90;;;;;;5067281;28;20194;-85
2023/10/16 07:58:48;;;;;;;13.63;6.23;;;4.50;99.90;;;;;;5068187;28;20688;-87
2023/10/16 08:03:41;;;;;;;10.40;5.27;;;6.90;99.90;;;;;;5086362;28;20188;-86
2023/10/16 08:06:12;;;;;;;10.67;5.93;;;6.70;99.90;;;;;;5086455;28;20164;-86
2023/10/16 08:08:38;;;;;;;11.43;5.67;;;5.60;99.90;;;;;;5068617;28;20198;-87
2023/10/16 08:11:18;;;;;;;12.30;5.70;;;4.90;99.90;;;;;;5067889;28;20176;-85
2023/10/16 08:13:48;;;;;;;11.77;5.60;;;7.50;99.90;;;;;;5068141;28;20171;-89
2023/10/16 08:16:24;;;;;;;16.77;6.73;;;7.50;99.90;;;;;;5068266;28;20202;-85
2023/10/16 08:18:51;;;;;;;11.10;6.40;;;5.30;99.90;;;;;;5068573;28;20211;-89
2023/10/16 08:21:24;;;;;;;15.10;7.23;;;5.50;99.90;;;;;;5068078;28;20171;-89
2023/10/16 08:23:54;;;;;;;18.70;6.77;;;5.50;99.90;;;;;;5067335;28;20256;-88
2023/10/16 08:26:29;;;;;;;17.70;7.43;;;5.70;99.90;;;;;;5067381;28;20172;-87
2023/10/16 08:29:17;;;;;;;20.57;7.97;;;6.00;99.90;;;;;;5069126;28;20203;-87
2023/10/16 08:34:35;;;;;;;14.33;7.57;;;7.90;99.90;;;;;;5087629;28;20198;-88
2023/10/16 08:37:04;;;;;;;18.47;9.53;;;6.30;99.90;;;;;;5068135;28;20210;-89
2023/10/16 08:39:36;;;;;;;25.17;11.10;;;7.20;99.90;;;;;;5084671;28;20199;-86
2023/10/16 08:42:18;;;;;;;23.03;11.13;;;7.30;99.90;;;;;;5066745;28;20180;-88
2023/10/16 08:47:42;;;;;;;21.07;10.13;;;6.90;99.90;;;;;;5085312;28;20187;-89
2023/10/16 08:50:17;;;;;;;22.33;11.80;;;7.50;99.90;;;;;;5084990;28;20187;-89
2023/10/16 08:52:58;;;;;;;19.90;11.47;;;7.00;99.90;;;;;;5083418;28;20156;-88
2023/10/16 08:55:26;;;;;;;21.47;10.90;;;7.00;99.90;;;;;;5067124;28;20190;-88
2023/10/16 08:57:52;;;;;;;22.73;11.43;;;8.10;99.90;;;;;;5068947;28;20203;-87
2023/10/16 09:00:23;;;;;;;24.77;11.43;;;9.50;99.90;;;;;;5067510;28;20685;-88
2023/10/16 09:02:55;;;;;;;23.80;11.27;;;7.40;99.90;;;;;;5069262;28;20170;-89
2023/10/16 09:05:21;;;;;;;18.80;9.80;;;8.50;99.90;;;;;;5068928;28;20239;-87
2023/10/16 09:07:48;;;;;;;16.50;9.37;;;8.30;99.90;;;;;;5070279;28;20553;-86
2023/10/16 09:10:15;;;;;;;17.30;10.17;;;7.70;99.90;;;;;;5069164;28;20196;-86
2023/10/16 09:12:55;;;;;;;22.53;10.80;;;9.60;99.90;;;;;;5070445;28;20209;-84
2023/10/16 09:15:27;;;;;;;19.83;9.20;;;8.90;99.90;;;;;;5070712;28;20171;-86
2023/10/16 09:17:54;;;;;;;16.47;9.13;;;8.90;99.90;;;;;;5071516;28;20209;-87
2023/10/16 09:20:32;;;;;;;13.63;7.87;;;9.00;99.90;;;;;;5070614;28;20196;-88
2023/10/16 09:23:02;;;;;;;22.60;8.93;;;8.30;99.90;;;;;;5071182;28;20182;-88
2023/10/16 09:25:31;;;;;;;15.27;8.30;;;8.40;99.90;;;;;;5071259;28;20628;-87
2023/10/16 09:27:56;;;;;;;17.93;8.17;;;8.80;99.90;;;;;;5069461;28;20175;-87
2023/10/16 09:30:23;;;;;;;18.03;7.73;;;9.80;99.90;;;;;;5070950;28;20192;-87
2023/10/16 09:32:48;;;;;;;20.23;8.97;;;8.70;99.90;;;;;;5071824;28;20183;-89
2023/10/16 09:35:17;;;;;;;20.00;8.23;;;9.70;99.90;;;;;;5071516;28;20186;-88
2023/10/16 09:37:52;;;;;;;15.10;8.07;;;10.00;99.90;;;;;;5071468;28;20208;-89
2023/10/16 09:43:06;;;;;;;14.87;7.57;;;9.10;99.90;;;;;;5089347;28;20193;-89
2023/10/16 09:45:36;;;;;;;14.03;7.80;;;9.30;99.90;;;;;;5071070;28;20536;-88
2023/10/16 09:48:07;;;;;;;16.53;7.30;;;11.20;99.90;;;;;;5076816;28;20186;-87
2023/10/16 09:50:35;;;;;;;15.03;7.30;;;9.50;99.90;;;;;;5069142;28;20264;-88
2023/10/16 09:53:01;;;;;;;12.13;6.60;;;10.00;99.90;;;;;;5068540;28;20192;-88
2023/10/16 09:55:33;;;;;;;11.10;6.03;;;9.70;99.90;;;;;;5068812;28;20179;-88
2023/10/16 09:58:01;;;;;;;10.70;5.50;;;10.80;99.90;;;;;;5071553;28;20225;-88
2023/10/16 10:03:11;;;;;;;15.97;5.37;;;9.90;99.90;;;;;;5089903;28;20194;-89
2023/10/16 10:05:42;;;;;;;10.30;5.33;;;10.10;99.90;;;;;;5073031;28;20225;-88
2023/10/16 10:08:17;;;;;;;10.53;5.70;;;11.00;99.90;;;;;;5073982;28;20179;-87
2023/10/16 10:13:35;;;;;;;9.07;4.93;;;10.30;99.90;;;;;;5091583;28;20178;-89
2023/10/16 10:16:14;;;;;;;7.27;4.70;;;10.50;99.90;;;;;;5073552;28;20176;-88
2023/10/16 10:18:49;;;;;;;11.57;4.73;;;10.60;99.90;;;;;;5072750;28;20215;-90
2023/10/16 10:21:27;;;;;;;6.87;4.33;;;11.70;99.90;;;;;;5071769;28;20178;-88
2023/10/16 10:24:00;;;;;;;16.60;4.30;;;11.10;99.90;;;;;;5073373;28;20176;-89
2023/10/16 10:26:26;;;;;;;7.10;3.73;;;11.00;99.90;;;;;;5073026;28;20168;-90
2023/10/16 10:29:11;;;;;;;8.27;3.80;;;10.90;99.90;;;;;;5072258;28;20229;-88
2023/10/16 10:31:41;;;;;;;6.93;3.53;;;11.10;99.90;;;;;;5073252;28;20651;-88
2023/10/16 10:34:24;;;;;;;8.60;3.50;;;11.10;99.90;;;;;;5072586;28;20194;-88
2023/10/16 10:36:50;;;;;;;10.60;3.23;;;11.20;99.90;;;;;;5072890;28;20183;-88
2023/10/16 10:39:22;;;;;;;10.23;2.97;;;11.40;99.90;;;;;;5071266;28;20230;-89
2023/10/16 10:41:54;;;;;;;9.30;2.83;;;11.40;99.90;;;;;;5071055;28;20183;-88
2023/10/16 10:44:29;;;;;;;9.93;3.43;;;11.30;99.90;;;;;;5072557;28;20179;-90
2023/10/16 10:46:55;;;;;;;6.07;2.80;;;12.10;99.90;;;;;;5072518;28;20215;-88
2023/10/16 10:49:34;;;;;;;8.13;2.90;;;12.90;99.90;;;;;;5071024;28;20212;-89
2023/10/16 10:52:07;;;;;;;8.53;2.50;;;11.60;99.90;;;;;;5071592;28;20183;-90
2023/10/16 10:54:54;;;;;;;7.73;2.70;;;11.70;99.90;;;;;;5070510;28;20187;-91
2023/10/16 10:57:24;;;;;;;7.17;2.60;;;11.90;99.90;;;;;;5090148;28;20193;-88
2023/10/16 11:00:02;;;;;;;5.90;2.17;;;11.90;99.90;;;;;;5071586;28;20575;-88
2023/10/16 11:05:14;;;;;;;5.03;2.73;;;12.20;99.90;;;;;;5090258;28;20598;-86
2023/10/16 11:07:46;;;;;;;5.80;2.47;;;12.20;99.90;;;;;;5060129;28;20179;-87
2023/10/16 11:10:15;;;;;;;4.57;2.73;;;12.60;99.90;;;;;;5070415;28;20207;-90
2023/10/16 11:12:40;;;;;;;8.40;2.43;;;13.10;99.90;;;;;;5069586;28;20183;-89
2023/10/16 11:15:16;;;;;;;6.57;2.70;;;12.50;99.90;;;;;;5069495;28;20232;-90
2023/10/16 11:17:44;;;;;;;5.57;2.30;;;12.60;99.90;;;;;;5068985;28;20240;-90
2023/10/16 11:22:45;;;;;;;5.60;2.67;;;12.60;99.90;;;;;;5086247;28;20155;-89
2023/10/16 11:25:14;;;;;;;5.23;2.87;;;12.60;99.90;;;;;;5069771;28;20184;-87
2023/10/16 11:27:42;;;;;;;4.70;2.13;;;12.70;99.90;;;;;;5067351;28;20218;-89
2023/10/16 11:30:18;;;;;;;7.43;2.83;;;13.80;99.90;;;;;;5068328;28;20206;-89
2023/10/16 11:32:46;;;;;;;6.30;2.00;;;12.90;99.90;;;;;;5068821;28;20171;-89
2023/10/16 11:35:13;;;;;;;5.90;1.93;;;13.10;99.90;;;;;;5066677;28;20183;-89
2023/10/16 11:37:39;;;;;;;7.67;2.60;;;13.10;66.80;;;;;;5066751;28;20267;-90
2023/10/16 11:40:18;;;;;;;4.27;1.70;;;15.00;84.40;;;;;;5068818;28;20288;-88
2023/10/16 11:42:47;;;;;;;7.80;2.40;;;13.00;92.30;;;;;;5072185;28;20207;-88
2023/10/16 11:45:20;;;;;;;5.53;2.03;;;13.10;99.90;;;;;;5073349;28;20160;-89
2023/10/16 11:48:20;;;;;;;6.17;2.50;;;13.30;99.90;;;;;;5073694;28;20172;-88
2023/10/16 11:50:50;;;;;;;7.23;2.50;;;13.50;99.90;;;;;;5072796;28;20191;-88
2023/10/16 11:53:23;;;;;;;6.10;2.50;;;14.40;97.40;;;;;;5072688;28;20183;-88
2023/10/16 11:55:50;;;;;;;7.73;2.53;;;13.70;99.50;;;;;;5073400;28;20203;-87
2023/10/16 11:58:16;;;;;;;7.30;2.40;;;14.90;99.90;;;;;;5073546;28;20226;-88
2023/10/16 12:00:57;;;;;;;8.30;2.63;;;13.90;99.90;;;;;;5073622;28;20183;-89
2023/10/16 12:03:26;;;;;;;7.40;2.63;;;14.10;93.70;;;;;;5090021;28;20537;-87
2023/10/16 12:05:52;;;;;;;8.03;2.77;;;14.90;99.40;;;;;;5072227;28;20183;-88
2023/10/16 12:08:21;;;;;;;6.40;2.63;;;14.10;99.90;;;;;;5069594;28;20195;-87
2023/10/16 12:10:50;;;;;;;6.07;2.50;;;14.20;99.90;;;;;;5072521;28;20685;-91
2023/10/16 12:13:16;;;;;;;5.33;2.50;;;16.00;96.00;;;;;;5066881;28;20611;-90
2023/10/16 12:15:43;;;;;;;8.83;2.67;;;14.20;97.50;;;;;;5070471;28;20183;-89
2023/10/16 12:18:12;;;;;;;9.67;2.63;;;14.20;99.90;;;;;;5069935;28;20235;-90
2023/10/16 12:20:41;;;;;;;6.57;2.63;;;14.50;99.90;;;;;;5070308;28;20172;-88
2023/10/16 12:23:07;;;;;;;4.93;2.00;;;14.70;96.20;;;;;;5089247;28;20254;-89
2023/10/16 12:25:34;;;;;;;6.43;1.83;;;14.30;97.20;;;;;;5070749;28;20184;-90
2023/10/16 12:28:01;;;;;;;7.27;1.60;;;15.00;98.00;;;;;;5069961;28;20184;-88
2023/10/16 12:30:27;;;;;;;4.73;1.93;;;15.30;93.50;;;;;;5087163;28;20180;-88
2023/10/16 12:32:54;;;;;;;12.03;1.80;;;15.50;51.20;;;;;;5086721;28;20176;-87
2023/10/16 12:35:22;;;;;;;4.87;1.70;;;14.60;69.00;;;;;;5068689;28;20214;-87
2023/10/16 12:37:48;;;;;;;6.07;2.07;;;14.40;61.70;;;;;;5085551;28;20287;-87
2023/10/16 12:43:00;;;;;;;5.50;2.30;;;14.40;89.30;;;;;;5083511;28;20207;-88
2023/10/16 12:45:27;;;;;;;9.73;3.60;;;14.50;72.30;;;;;;5065650;28;20186;-90
2023/10/16 12:47:54;;;;;;;5.20;1.73;;;14.40;57.60;;;;;;5066101;28;20191;-88
2023/10/16 12:50:24;;;;;;;3.93;1.60;;;14.40;66.90;;;;;;5084244;28;20199;-89
2023/10/16 12:52:58;;;;;;;6.20;1.70;;;15.40;73.80;;;;;;5084458;28;20175;-89
2023/10/16 12:55:24;;;;;;;5.77;1.80;;;15.10;81.10;;;;;;5067089;28;20282;-87
2023/10/16 12:57:51;;;;;;;5.50;1.40;;;14.50;83.90;;;;;;5084309;28;20260;-89
2023/10/16 13:00:18;;;;;;;3.70;1.63;;;14.90;71.70;;;;;;5082781;28;20229;-89
2023/10/16 13:02:51;;;;;;;9.37;1.67;;;14.60;85.50;;;;;;5082781;28;20175;-88
2023/10/16 13:05:24;;;;;;;7.10;1.80;;;15.60;77.70;;;;;;5064641;28;20199;-88
2023/10/16 13:07:50;;;;;;;5.60;1.60;;;15.10;88.30;;;;;;5066251;28;20171;-87
2023/10/16 13:10:20;;;;;;;9.37;2.40;;;14.60;96.10;;;;;;5065366;28;20246;-88
2023/10/16 13:12:48;;;;;;;9.27;2.20;;;14.70;96.60;;;;;;5083874;28;20527;-87
2023/10/16 13:15:16;;;;;;;4.30;1.90;;;14.90;97.30;;;;;;5070143;28;20206;-87
2023/10/16 13:17:44;;;;;;;5.80;1.77;;;14.60;93.80;;;;;;5068208;28;20214;-88
2023/10/16 13:20:19;;;;;;;7.93;1.93;;;14.60;94.90;;;;;;5087667;28;20215;-88
2023/10/16 13:22:52;;;;;;;3.67;1.97;;;14.60;93.50;;;;;;5087016;28;20152;-88
2023/10/16 13:25:23;;;;;;;5.97;1.97;;;15.30;93.80;;;;;;5086116;28;20156;-88
2023/10/16 13:27:49;;;;;;;4.93;2.20;;;14.70;94.00;;;;;;5085117;28;20176;-91
2023/10/16 13:30:18;;;;;;;8.23;2.70;;;14.70;93.80;;;;;;5066479;28;20328;-88
2023/10/16 13:32:48;;;;;;;3.97;2.03;;;15.40;94.40;;;;;;5070644;28;20179;-90
2023/10/16 13:35:16;;;;;;;7.23;2.80;;;15.10;90.00;;;;;;5068789;28;20241;-88
2023/10/16 13:37:43;;;;;;;8.27;2.67;;;15.40;39.30;;;;;;5088270;28;20306;-88
2023/10/16 13:40:20;;;;;;;7.60;2.67;;;14.60;71.00;;;;;;5088984;28;20210;-87
2023/10/16 13:42:55;;;;;;;5.87;3.20;;;14.50;74.30;;;;;;5074062;28;20168;-87
2023/10/16 13:45:22;;;;;;;10.30;4.17;;;14.60;78.80;;;;;;5090726;28;20171;-87
2023/10/16 13:47:49;;;;;;;11.97;3.90;;;14.50;62.90;;;;;;5073088;28;20194;-86
2023/10/16 13:50:28;;;;;;;9.20;4.67;;;14.40;67.20;;;;;;5088152;28;20671;-88
2023/10/16 13:52:54;;;;;;;8.13;3.80;;;14.40;77.60;;;;;;5088911;28;20164;-88
2023/10/16 13:55:23;;;;;;;5.27;3.43;;;14.90;71.00;;;;;;5089796;28;20206;-87
2023/10/16 13:57:51;;;;;;;7.90;4.03;;;15.60;72.50;;;;;;5088354;28;20267;-89
2023/10/16 14:00:31;;;;;;;7.70;3.93;;;14.30;57.10;;;;;;5088549;28;20195;-86
2023/10/16 14:03:14;;;;;;;7.97;3.97;;;14.20;62.70;;;;;;5070794;28;20172;-90
2023/10/16 14:06:01;;;;;;;8.07;3.40;;;14.20;45.80;;;;;;5071468;28;20195;-88
2023/10/16 14:08:30;;;;;;;5.97;3.37;;;14.20;59.60;;;;;;5071810;28;20253;-87
2023/10/16 14:11:00;;;;;;;9.37;3.57;;;14.20;74.50;;;;;;5089863;28;20604;-88
2023/10/16 14:13:27;;;;;;;4.53;2.73;;;14.30;70.80;;;;;;5082440;28;20659;-88
2023/10/16 14:16:01;;;;;;;6.47;2.90;;;14.40;74.50;;;;;;5069750;28;20256;-87
2023/10/16 14:18:29;;;;;;;7.27;3.00;;;13.20;79.40;;;;;;5070228;28;20207;-88
2023/10/16 14:20:56;;;;;;;7.77;3.10;;;14.80;85.50;;;;;;5070627;28;20172;-90
2023/10/16 14:23:28;;;;;;;8.80;2.80;;;14.30;55.50;;;;;;5089177;28;20179;-88
2023/10/16 14:25:58;;;;;;;8.17;2.83;;;14.30;44.20;;;;;;5070005;28;20553;-90
2023/10/16 14:31:04;;;;;;;6.43;2.20;;;13.90;43.80;;;;;;5085916;28;20241;-85
2023/10/16 14:33:31;;;;;;;5.73;1.97;;;14.80;50.40;;;;;;5087762;28;20187;-87
2023/10/16 14:36:04;;;;;;;6.57;2.00;;;13.70;71.40;;;;;;5071911;28;20206;-88
2023/10/16 14:38:30;;;;;;;6.07;2.50;;;14.00;70.40;;;;;;5073019;28;20211;-87
2023/10/16 14:40:59;;;;;;;5.67;2.30;;;15.40;70.60;;;;;;5072284;28;20194;-90
2023/10/16 14:43:25;;;;;;;3.20;2.00;;;14.80;68.80;;;;;;5072116;28;20244;-87
2023/10/16 14:45:53;;;;;;;4.47;1.80;;;13.80;70.90;;;;;;5072958;28;20260;-88
2023/10/16 14:48:23;;;;;;;4.23;1.90;;;13.60;69.60;;;;;;5073698;28;20210;-88
2023/10/16 14:50:50;;;;;;;3.83;2.00;;;13.60;81.50;;;;;;5072110;28;20198;-88
2023/10/16 14:53:19;;;;;;;7.63;2.30;;;13.70;82.60;;;;;;5072176;28;20266;-88
2023/10/16 14:55:47;;;;;;;5.23;2.77;;;12.60;84.00;;;;;;5072060;28;20555;-90
2023/10/16 14:58:14;;;;;;;5.57;2.50;;;13.90;41.50;;;;;;5071217;28;20203;-90
2023/10/16 15:00:44;;;;;;;6.27;2.40;;;13.40;52.90;;;;;;5069920;28;20239;-89
2023/10/16 15:03:13;;;;;;;7.37;2.80;;;14.60;70.00;;;;;;5070066;28;20179;-88
2023/10/16 15:05:40;;;;;;;5.77;2.53;;;14.60;81.60;;;;;;5087195;28;20188;-87
2023/10/16 15:08:13;;;;;;;4.17;2.00;;;13.80;80.50;;;;;;5084274;28;20175;-88
2023/10/16 15:10:47;;;;;;;4.90;2.17;;;13.60;88.40;;;;;;5065927;28;20175;-89
2023/10/16 15:13:14;;;;;;;5.27;2.60;;;13.40;86.70;;;;;;5084104;28;20176;-88
2023/10/16 15:15:45;;;;;;;5.40;2.57;;;13.60;85.40;;;;;;5068635;28;20180;-89
2023/10/16 15:18:11;;;;;;;6.47;2.50;;;13.40;80.70;;;;;;5067893;28;20207;-89
2023/10/16 15:20:39;;;;;;;6.43;3.27;;;14.60;90.20;;;;;;5067734;28;20239;-88
2023/10/16 15:23:11;;;;;;;6.03;2.70;;;14.60;93.20;;;;;;5084955;28;20167;-87